Domov               UVHVVR             MKGP            O straneh              
ZDRAVSTVENO VARSTVO RASTLIN
  MREŽA AGROMET. POSTAJ
 ► PROGNOSTIČNA OBVESTILA
AGROMETEOROLOŠKI PODATKI -
ARSO
OBVLADOVANJE TVEGANJ ZARADI
NEUGODNIH VREMENSKIH RAZMER
  ► NARAVNE NESREČE
  ► SUŠA/MOČA
  ► NAMAKANJE
  ► ŽLED (gozdarstvo)
KARTOGRAFSKI PRIKAZI
SPLETNE POVEZAVE
PROJEKTI IN PUBLIKACIJE

AGROMETEOROLOŠKA MREŽA: VREMENSKE POSTAJE IN FENOLOŠKA OPAZOVANJA

Pregled podatkov za lokacijo Godemarci, meteorološka postaja 37828

Pregled senzorjev na lokaciji

ID Ime Zadnja
vrednost
Datum
zadnje
spremembe
Tip
senzorja
3799 Omočenost lista (U) 2 U 24.8.2017 08:00 A730WET
3800 Temperatura 2 m ( °C) 14,11 °C 24.8.2017 08:00 50YA
3801 Relativna vlaga 2 m (% RH) 99,73 % RH 24.8.2017 08:00 50YA
3802 Padavine 0.2 mm (mm) 0 mm 24.8.2017 08:00 Rain-O-Matic

Pregled podatkov zadnjih 24 ur

Zap.
št.
Datum in čas Godemarci
Omočenost
lista
Padavine
0.2
mm
Relativna
vlaga
2
m
Temperatura
2
m
0 24.8.2017 07:00 2 0 99,73 14,11
1 24.8.2017 06:30 2 0 99,93 12,23
2 24.8.2017 06:00 2 0 99,93 10,53
3 24.8.2017 05:30 2 0 99,93 9,57
4 24.8.2017 05:00 2 0 99,93 9,4
5 24.8.2017 04:30 2 0 99,93 9,52
6 24.8.2017 04:00 2 0 99,93 9,79
7 24.8.2017 03:30 2 0 99,93 10,04
8 24.8.2017 03:00 2 0 99,93 10,13
9 24.8.2017 02:30 2 0 99,93 10,18
10 24.8.2017 02:00 2 0 99,93 10,43
11 24.8.2017 01:30 2 0 99,93 10,67
12 24.8.2017 01:00 2 0 99,9 11,18
13 24.8.2017 00:30 2 0 99,93 11,21
14 24.8.2017 00:00 2 0 99,63 11,31
15 23.8.2017 23:30 2 0 98,97 11,55
16 23.8.2017 23:00 2 0 98,44 11,97
17 23.8.2017 22:30 2 0 97,34 12,36
18 23.8.2017 22:00 2 0 95,07 12,82
19 23.8.2017 21:30 2 0 93,9 13,38
20 23.8.2017 21:00 2 0 91,45 13,75
21 23.8.2017 20:30 2 0 90,01 14,24
22 23.8.2017 20:00 2 0 88,35 14,8
23 23.8.2017 19:30 2 0 84,62 15,87
24 23.8.2017 19:00 0 0 80 17,41
25 23.8.2017 18:30 0 0 71,79 19,66
26 23.8.2017 18:00 0 0 53,99 21,95
27 23.8.2017 17:30 0 0 41,86 24,37
28 23.8.2017 17:00 0 0 35,78 26,2
29 23.8.2017 16:30 0 0 34,82 26,62
30 23.8.2017 16:00 0 0 33,06 27,2
31 23.8.2017 15:30 0 0 33,48 27,23
32 23.8.2017 15:00 0 0 34,43 26,57
33 23.8.2017 14:30 0 0 36,24 26,03
34 23.8.2017 14:00 0 0 38,61 24,88
35 23.8.2017 13:30 0 0 39,39 24,32
36 23.8.2017 13:00 0 0 39,41 24,3
37 23.8.2017 12:30 0 0 39,39 23,54
38 23.8.2017 12:00 0 0 42,2 23,3
39 23.8.2017 11:30 0 0 43,83 23,25
40 23.8.2017 11:00 0 0 42,78 22,76
41 23.8.2017 10:30 0 0 44,44 22,3
42 23.8.2017 10:00 0 0 46,4 21,51
43 23.8.2017 09:30 0 0 50,09 20,68
44 23.8.2017 09:00 0 0 53,04 19,93
© 2011 Ministrstvo za kmetijstvo, gozdarstvo in prehrano. Vse pravice pridržane.